Time;durP1;ratioP1;P1;durP2;ratioP2;P2;SDS_P1;SDS_P2;PMS_P1;PMS_P2;Temp;Humidity;BMP_temperature;BMP_pressure;BME280_temperature;BME280_humidity;BME280_pressure;Samples;Min_cycle;Max_cycle;Signal;HPM_P1;HPM_P2
2022/10/20 00:00:25;;;;;;;0.47;0.30;;;5.40;99.90;;;;;;5047968;28;20495;-80
2022/10/20 00:02:51;;;;;;;66.18;4.88;;;5.60;99.90;;;;;;5048073;28;20423;-80
2022/10/20 00:05:17;;;;;;;0.28;0.28;;;5.50;99.90;;;;;;5047894;28;20049;-80
2022/10/20 00:07:42;;;;;;;2.75;0.40;;;5.50;99.90;;;;;;5049310;28;20794;-81
2022/10/20 00:10:08;;;;;;;0.00;0.00;;;5.50;99.90;;;;;;5048661;28;20053;-80
2022/10/20 00:12:34;;;;;;;0.77;0.73;;;5.40;99.90;;;;;;5048499;28;20101;-80
2022/10/20 00:15:00;;;;;;;0.40;0.40;;;5.50;99.90;;;;;;5048235;28;20132;-81
2022/10/20 00:17:25;;;;;;;0.40;0.40;;;5.40;99.90;;;;;;5048522;28;20134;-81
2022/10/20 00:19:51;;;;;;;0.35;0.20;;;5.30;99.90;;;;;;5047675;28;20049;-80
2022/10/20 00:22:16;;;;;;;0.55;0.52;;;5.30;99.90;;;;;;5048008;28;20045;-80
2022/10/20 00:24:42;;;;;;;0.10;0.10;;;5.20;99.90;;;;;;5049255;28;20051;-80
2022/10/20 00:27:08;;;;;;;3.00;0.90;;;5.40;99.90;;;;;;5049986;28;20045;-80
2022/10/20 00:29:34;;;;;;;0.10;0.10;;;5.30;99.90;;;;;;5049970;28;20053;-80
2022/10/20 00:31:59;;;;;;;4.47;1.45;;;5.40;99.90;;;;;;5049987;28;20128;-81
2022/10/20 00:34:25;;;;;;;0.93;0.90;;;5.30;99.90;;;;;;5049212;28;20443;-80
2022/10/20 00:36:51;;;;;;;0.57;0.55;;;5.20;99.90;;;;;;5048757;28;20076;-80
2022/10/20 00:39:16;;;;;;;0.00;0.00;;;5.20;99.90;;;;;;5048519;28;20049;-80
2022/10/20 00:41:42;;;;;;;0.65;0.63;;;5.10;99.90;;;;;;5048199;28;20446;-80
2022/10/20 00:44:45;;;;;;;0.15;0.15;;;5.00;99.90;;;;;;5047643;28;20063;-80
2022/10/20 00:47:15;;;;;;;0.55;0.20;;;5.00;99.90;;;;;;5048951;28;20049;-80
2022/10/20 00:49:41;;;;;;;0.20;0.20;;;4.90;99.90;;;;;;5048966;28;20049;-80
2022/10/20 00:52:08;;;;;;;0.70;0.70;;;4.80;99.90;;;;;;5049042;28;20048;-80
2022/10/20 00:54:33;;;;;;;1.60;1.33;;;4.80;99.90;;;;;;5048477;28;20106;-80
2022/10/20 00:56:59;;;;;;;1.52;1.25;;;4.80;99.90;;;;;;5049494;28;20040;-80
2022/10/20 00:59:32;;;;;;;1.73;0.85;;;4.80;99.90;;;;;;5048876;28;20095;-80
2022/10/20 01:02:00;;;;;;;0.32;0.32;;;4.70;99.90;;;;;;5049152;28;20057;-80
2022/10/20 01:04:28;;;;;;;0.40;0.35;;;4.70;99.90;;;;;;5049083;28;20049;-80
2022/10/20 01:06:54;;;;;;;1.65;0.50;;;4.70;99.90;;;;;;5048825;28;20041;-80
2022/10/20 01:09:20;;;;;;;0.00;0.00;;;4.70;99.90;;;;;;5048161;28;20041;-80
2022/10/20 01:12:03;;;;;;;0.35;0.30;;;4.70;99.90;;;;;;5048980;28;20149;-80
2022/10/20 01:14:48;;;;;;;0.55;0.55;;;4.80;99.90;;;;;;5048863;28;20045;-80
2022/10/20 01:17:26;;;;;;;1.35;0.63;;;4.80;99.90;;;;;;5049324;28;20048;-80
2022/10/20 01:20:29;;;;;;;0.45;0.45;;;4.90;99.90;;;;;;5047732;28;20053;-80
2022/10/20 01:23:16;;;;;;;0.00;0.00;;;5.00;99.90;;;;;;5046956;28;20131;-80
2022/10/20 01:25:47;;;;;;;1.25;1.15;;;4.80;99.90;;;;;;5046528;28;20064;-80
2022/10/20 01:28:21;;;;;;;0.00;0.00;;;4.80;99.90;;;;;;5046703;28;20100;-80
2022/10/20 01:30:55;;;;;;;0.13;0.13;;;4.90;99.90;;;;;;5048071;28;20811;-80
2022/10/20 01:33:32;;;;;;;0.75;0.57;;;4.80;99.90;;;;;;5046753;28;20053;-80
2022/10/20 01:36:01;;;;;;;0.00;0.00;;;4.90;99.90;;;;;;5027774;28;20459;-80
2022/10/20 01:38:39;;;;;;;0.30;0.30;;;4.90;99.90;;;;;;5028319;28;20060;-80
2022/10/20 01:41:27;;;;;;;3.10;1.20;;;4.90;99.90;;;;;;5028658;28;20133;-80
2022/10/20 01:43:53;;;;;;;0.38;0.20;;;4.90;99.90;;;;;;5031540;28;20045;-80
2022/10/20 01:46:22;;;;;;;0.32;0.30;;;4.90;99.90;;;;;;5047929;28;20048;-80
2022/10/20 01:48:48;;;;;;;0.10;0.10;;;4.90;99.90;;;;;;5047744;28;20149;-80
2022/10/20 01:51:14;;;;;;;0.00;0.00;;;4.90;99.90;;;;;;5048211;28;20534;-80
2022/10/20 01:53:40;;;;;;;0.63;0.63;;;5.00;99.90;;;;;;5047137;28;20364;-82
2022/10/20 01:56:13;;;;;;;0.08;0.08;;;4.90;99.90;;;;;;5048883;28;20104;-80
2022/10/20 01:59:01;;;;;;;1.08;0.95;;;4.90;99.90;;;;;;5052152;28;20049;-80
2022/10/20 02:01:48;;;;;;;0.10;0.10;;;4.90;99.90;;;;;;5051486;28;20059;-81
2022/10/20 02:04:16;;;;;;;0.10;0.10;;;4.90;99.90;;;;;;5052469;28;20052;-80
2022/10/20 02:06:56;;;;;;;0.20;0.20;;;4.90;99.90;;;;;;5033395;28;20053;-80
2022/10/20 02:09:37;;;;;;;0.47;0.47;;;4.90;99.90;;;;;;5052941;28;20411;-80
2022/10/20 02:12:16;;;;;;;0.55;0.55;;;4.90;99.90;;;;;;5052170;28;20076;-80
2022/10/20 02:14:43;;;;;;;0.43;0.40;;;4.90;99.90;;;;;;5052519;28;20072;-80
2022/10/20 02:17:14;;;;;;;0.60;0.32;;;4.90;99.90;;;;;;5034488;28;20052;-80
2022/10/20 02:19:43;;;;;;;0.47;0.45;;;4.80;99.90;;;;;;5051956;28;20076;-80
2022/10/20 02:22:12;;;;;;;5.47;2.55;;;4.80;99.90;;;;;;5051196;28;20108;-81
2022/10/20 02:24:41;;;;;;;0.03;0.03;;;4.80;99.90;;;;;;5051306;28;20045;-81
2022/10/20 02:27:15;;;;;;;0.15;0.15;;;4.80;99.90;;;;;;5051965;28;20499;-81
2022/10/20 02:29:51;;;;;;;6.32;1.33;;;4.80;99.90;;;;;;5052437;28;20048;-81
2022/10/20 02:32:17;;;;;;;0.00;0.00;;;4.70;99.90;;;;;;5052193;28;20055;-80
2022/10/20 02:34:43;;;;;;;6.35;2.58;;;4.70;99.90;;;;;;5051869;28;20263;-81
2022/10/20 02:37:10;;;;;;;0.47;0.40;;;4.70;99.90;;;;;;5052329;28;20045;-81
2022/10/20 02:39:35;;;;;;;0.55;0.47;;;4.70;99.90;;;;;;5051304;28;20072;-79
2022/10/20 02:42:01;;;;;;;0.35;0.35;;;4.70;99.90;;;;;;5051461;28;20072;-82
2022/10/20 02:44:27;;;;;;;0.00;0.00;;;4.70;99.90;;;;;;5052309;28;20041;-81
2022/10/20 02:46:52;;;;;;;2.83;2.45;;;4.70;99.90;;;;;;5052205;28;20416;-81
2022/10/20 02:49:20;;;;;;;0.17;0.17;;;4.60;99.90;;;;;;5050633;28;20053;-81
2022/10/20 02:51:46;;;;;;;0.47;0.47;;;5.00;99.90;;;;;;5050392;28;20049;-81
2022/10/20 02:54:11;;;;;;;1.40;1.30;;;4.80;99.90;;;;;;5050480;28;20051;-80
2022/10/20 02:56:37;;;;;;;0.93;0.93;;;4.80;99.90;;;;;;5033176;28;20052;-81
2022/10/20 02:59:03;;;;;;;0.05;0.05;;;4.70;99.90;;;;;;5050331;28;20041;-81
2022/10/20 03:01:28;;;;;;;1.38;0.68;;;4.70;99.90;;;;;;5050852;28;20131;-81
2022/10/20 03:03:58;;;;;;;0.15;0.15;;;4.80;99.90;;;;;;5050792;28;20064;-81
2022/10/20 03:06:24;;;;;;;1.27;0.75;;;4.70;99.90;;;;;;5050569;28;20045;-81
2022/10/20 03:08:50;;;;;;;0.00;0.00;;;4.80;99.90;;;;;;5049650;28;20071;-80
2022/10/20 03:11:15;;;;;;;0.68;0.68;;;4.70;99.90;;;;;;5052305;28;20475;-81
2022/10/20 03:13:41;;;;;;;1.45;1.35;;;4.70;99.90;;;;;;5050220;28;20115;-81
2022/10/20 03:16:07;;;;;;;0.10;0.10;;;4.80;99.90;;;;;;5050441;28;20560;-81
2022/10/20 03:18:33;;;;;;;0.15;0.15;;;4.70;99.90;;;;;;5050099;28;20041;-81
2022/10/20 03:20:58;;;;;;;0.05;0.03;;;4.70;99.90;;;;;;5049901;28;20080;-80
2022/10/20 03:23:24;;;;;;;0.38;0.38;;;4.70;99.90;;;;;;5049413;28;20399;-81
2022/10/20 03:25:49;;;;;;;0.75;0.50;;;4.80;99.90;;;;;;5050277;28;20044;-80
2022/10/20 03:28:15;;;;;;;0.10;0.10;;;4.80;99.90;;;;;;5050884;28;20036;-80
2022/10/20 03:30:41;;;;;;;0.55;0.55;;;4.60;99.90;;;;;;5049286;28;20041;-81
2022/10/20 03:33:07;;;;;;;0.17;0.17;;;4.70;99.90;;;;;;5050917;28;20126;-81
2022/10/20 03:35:32;;;;;;;0.32;0.32;;;4.80;99.90;;;;;;5050484;28;20107;-81
2022/10/20 03:37:58;;;;;;;0.10;0.10;;;4.70;99.90;;;;;;5049150;28;20052;-81
2022/10/20 03:40:25;;;;;;;1.13;1.02;;;4.80;99.90;;;;;;5050210;28;20066;-81
2022/10/20 03:42:51;;;;;;;3.72;1.75;;;4.90;99.90;;;;;;5049441;28;20103;-81
2022/10/20 03:45:16;;;;;;;0.10;0.10;;;5.00;99.90;;;;;;5048719;28;20048;-81
2022/10/20 03:47:42;;;;;;;0.47;0.47;;;5.00;99.90;;;;;;5049459;28;20072;-81
2022/10/20 03:50:08;;;;;;;0.28;0.28;;;4.90;99.90;;;;;;5050755;28;20049;-81
2022/10/20 03:52:33;;;;;;;0.17;0.17;;;5.10;99.90;;;;;;5048991;28;20586;-81
2022/10/20 03:54:59;;;;;;;2.83;0.73;;;5.10;99.90;;;;;;5050516;28;20067;-80
2022/10/20 03:57:24;;;;;;;7.78;2.83;;;5.20;99.90;;;;;;5049946;28;20048;-81
2022/10/20 03:59:50;;;;;;;0.20;0.20;;;5.10;99.90;;;;;;5048119;28;20376;-80
2022/10/20 04:02:30;;;;;;;0.47;0.47;;;5.10;99.90;;;;;;5048286;28;20060;-80
2022/10/20 04:04:56;;;;;;;0.57;0.55;;;5.20;99.90;;;;;;5048580;28;20120;-79
2022/10/20 04:07:21;;;;;;;1.92;0.90;;;5.20;99.90;;;;;;5048570;28;20125;-81
2022/10/20 04:09:47;;;;;;;0.55;0.32;;;5.30;99.90;;;;;;5048772;28;20052;-80
2022/10/20 04:12:13;;;;;;;1.75;0.80;;;5.30;99.90;;;;;;5048434;28;20126;-80
2022/10/20 04:14:39;;;;;;;0.17;0.17;;;5.30;99.90;;;;;;5049966;28;20045;-80
2022/10/20 04:17:05;;;;;;;0.20;0.20;;;5.30;99.90;;;;;;5049371;28;20045;-81
2022/10/20 04:19:31;;;;;;;0.50;0.50;;;5.40;99.90;;;;;;5049235;28;20102;-80
2022/10/20 04:21:56;;;;;;;7.82;1.27;;;5.30;99.90;;;;;;5048275;28;20518;-81
2022/10/20 04:24:22;;;;;;;1.08;0.98;;;5.30;99.90;;;;;;5050247;28;20080;-80
2022/10/20 04:26:47;;;;;;;1.13;0.75;;;5.30;99.90;;;;;;5048143;28;20403;-81
2022/10/20 04:29:13;;;;;;;1.13;1.02;;;5.30;99.90;;;;;;5048852;28;20041;-80
2022/10/20 04:31:39;;;;;;;4.95;1.33;;;5.30;99.90;;;;;;5048371;28;20101;-81
2022/10/20 04:34:04;;;;;;;0.65;0.65;;;5.30;99.90;;;;;;5048513;28;20067;-80
2022/10/20 04:36:30;;;;;;;0.75;0.65;;;5.40;99.90;;;;;;5047470;28;20044;-81
2022/10/20 04:38:56;;;;;;;1.67;0.63;;;5.40;99.90;;;;;;5046383;28;20049;-81
2022/10/20 04:41:21;;;;;;;0.13;0.13;;;5.40;99.90;;;;;;5045161;28;20102;-81
2022/10/20 04:43:51;;;;;;;0.70;0.70;;;5.40;99.90;;;;;;5044760;28;20064;-81
2022/10/20 04:46:18;;;;;;;2.03;1.23;;;5.40;99.90;;;;;;5045923;28;20037;-81
2022/10/20 04:48:44;;;;;;;0.52;0.52;;;5.30;99.90;;;;;;5045095;28;20076;-81
2022/10/20 04:51:12;;;;;;;0.30;0.30;;;5.40;99.90;;;;;;5045110;28;20062;-81
2022/10/20 04:53:38;;;;;;;9.50;1.95;;;5.30;99.90;;;;;;5046157;28;20384;-81
2022/10/20 04:56:06;;;;;;;1.45;0.45;;;5.30;99.90;;;;;;5043906;28;20049;-81
2022/10/20 04:58:33;;;;;;;2.42;1.30;;;5.30;99.90;;;;;;5043413;28;20047;-79
2022/10/20 05:01:11;;;;;;;0.82;0.80;;;5.30;99.90;;;;;;5042826;28;20503;-81
2022/10/20 05:03:37;;;;;;;0.28;0.28;;;5.40;99.90;;;;;;5043338;28;20090;-81
2022/10/20 05:06:16;;;;;;;0.50;0.50;;;5.30;99.90;;;;;;5042206;28;20045;-81
2022/10/20 05:08:45;;;;;;;0.20;0.20;;;5.30;99.90;;;;;;5042210;28;20072;-80
2022/10/20 05:11:12;;;;;;;2.67;1.90;;;5.40;99.90;;;;;;5042527;28;20053;-81
2022/10/20 05:13:38;;;;;;;1.17;1.08;;;5.30;99.90;;;;;;5043141;28;20041;-79
2022/10/20 05:16:04;;;;;;;0.95;0.77;;;5.30;99.90;;;;;;5041719;28;20449;-79
2022/10/20 05:18:31;;;;;;;2.78;1.23;;;5.30;99.90;;;;;;5041783;28;20045;-79
2022/10/20 05:20:57;;;;;;;0.35;0.35;;;5.30;99.90;;;;;;5043054;28;20396;-80
2022/10/20 05:23:23;;;;;;;3.35;2.28;;;5.30;99.90;;;;;;5043605;28;20049;-79
2022/10/20 05:25:49;;;;;;;1.05;0.95;;;5.20;99.90;;;;;;5039674;28;20049;-80
2022/10/20 05:28:15;;;;;;;1.75;1.65;;;5.30;99.90;;;;;;5042445;28;20083;-80
2022/10/20 05:30:41;;;;;;;1.02;0.63;;;5.10;99.90;;;;;;5044968;28;20127;-79
2022/10/20 05:33:07;;;;;;;0.52;0.52;;;5.20;99.90;;;;;;5048372;28;20073;-80
2022/10/20 05:35:32;;;;;;;0.38;0.38;;;5.20;99.90;;;;;;5048588;28;20066;-80
2022/10/20 05:37:59;;;;;;;1.80;1.20;;;5.20;99.90;;;;;;5047909;28;20056;-80
2022/10/20 05:40:24;;;;;;;0.55;0.55;;;5.20;99.90;;;;;;5047429;28;20067;-79
2022/10/20 05:42:50;;;;;;;0.50;0.50;;;5.10;99.90;;;;;;5047320;28;20048;-79
2022/10/20 05:45:16;;;;;;;0.85;0.85;;;5.20;99.90;;;;;;5048539;28;20049;-79
2022/10/20 05:47:41;;;;;;;0.75;0.75;;;5.20;99.90;;;;;;5047823;28;20044;-79
2022/10/20 05:50:08;;;;;;;1.08;1.00;;;5.30;99.90;;;;;;5048520;28;20105;-79
2022/10/20 05:52:34;;;;;;;1.35;1.25;;;5.30;99.90;;;;;;5048218;28;20115;-80
2022/10/20 05:55:00;;;;;;;0.63;0.63;;;5.40;99.90;;;;;;5048339;28;20057;-80
2022/10/20 05:57:26;;;;;;;11.57;1.33;;;5.30;99.90;;;;;;5046974;28;20044;-79
2022/10/20 05:59:51;;;;;;;0.30;0.30;;;5.30;99.90;;;;;;5046761;28;20068;-80
2022/10/20 06:02:17;;;;;;;4.13;0.63;;;5.30;99.90;;;;;;5047675;28;20065;-79
2022/10/20 06:04:43;;;;;;;1.05;0.70;;;5.40;99.90;;;;;;5048659;28;20352;-79
2022/10/20 06:07:11;;;;;;;1.80;1.65;;;5.40;99.90;;;;;;5048334;28;20045;-79
2022/10/20 06:09:38;;;;;;;2.55;1.58;;;5.30;99.90;;;;;;5048915;28;20090;-79
2022/10/20 06:12:05;;;;;;;2.15;1.48;;;5.30;99.90;;;;;;5049507;28;20045;-79
2022/10/20 06:14:30;;;;;;;0.85;0.63;;;5.40;99.90;;;;;;5049596;28;20040;-80
2022/10/20 06:16:56;;;;;;;0.40;0.40;;;5.30;99.90;;;;;;5048136;28;20045;-79
2022/10/20 06:19:23;;;;;;;1.75;1.65;;;5.30;99.90;;;;;;5048322;28;20083;-79
2022/10/20 06:21:49;;;;;;;1.13;1.02;;;5.40;99.90;;;;;;5048217;28;20045;-79
2022/10/20 06:24:16;;;;;;;2.28;1.77;;;5.30;99.90;;;;;;5048378;28;20047;-79
2022/10/20 06:26:43;;;;;;;1.35;0.98;;;5.40;99.90;;;;;;5029134;28;20130;-80
2022/10/20 06:29:11;;;;;;;0.82;0.82;;;5.40;99.90;;;;;;5047942;28;20128;-79
2022/10/20 06:31:39;;;;;;;0.57;0.57;;;5.40;99.90;;;;;;5047653;28;20136;-79
2022/10/20 06:34:12;;;;;;;1.40;0.57;;;5.40;99.90;;;;;;5029914;28;20056;-78
2022/10/20 06:36:39;;;;;;;0.35;0.35;;;5.50;91.60;;;;;;5046799;28;20605;-79
2022/10/20 06:39:06;;;;;;;0.80;0.80;;;5.50;60.70;;;;;;5046255;28;20052;-79
2022/10/20 06:41:33;;;;;;;0.90;0.88;;;5.60;41.70;;;;;;5046185;28;21028;-80
2022/10/20 06:43:59;;;;;;;1.08;1.00;;;5.60;32.40;;;;;;5046717;28;20093;-78
2022/10/20 06:46:27;;;;;;;0.38;0.38;;;5.60;29.90;;;;;;5046677;28;20522;-79
2022/10/20 06:48:53;;;;;;;1.40;1.08;;;5.70;2.50;;;;;;5038432;28;20037;-80
2022/10/20 06:51:22;;;;;;;2.00;1.48;;;5.80;1.00;;;;;;5041972;28;20068;-79
2022/10/20 06:53:49;;;;;;;0.80;0.60;;;5.80;1.00;;;;;;5047609;28;20371;-79
2022/10/20 06:56:29;;;;;;;0.55;0.55;;;5.80;1.00;;;;;;5046697;28;20040;-78
2022/10/20 06:58:56;;;;;;;0.88;0.88;;;5.90;1.00;;;;;;5047740;28;20045;-80
2022/10/20 07:01:28;;;;;;;2.35;2.15;;;5.90;1.00;;;;;;5047322;28;20060;-80
2022/10/20 07:04:06;;;;;;;0.77;0.50;;;5.90;1.00;;;;;;5048142;28;20033;-79
2022/10/20 07:06:35;;;;;;;0.30;0.30;;;5.90;1.00;;;;;;5046254;28;20074;-79
2022/10/20 07:09:03;;;;;;;0.68;0.68;;;6.20;1.00;;;;;;5047073;28;20075;-79
2022/10/20 07:11:30;;;;;;;0.28;0.28;;;6.10;1.00;;;;;;5045461;28;20052;-80
2022/10/20 07:13:57;;;;;;;0.70;0.70;;;6.10;1.00;;;;;;5045833;28;20477;-80
2022/10/20 07:16:25;;;;;;;2.13;1.02;;;6.10;1.00;;;;;;5047669;28;20517;-80
2022/10/20 07:18:51;;;;;;;0.90;0.77;;;6.20;99.90;;;;;;5045419;28;20087;-79
2022/10/20 07:21:20;;;;;;;0.32;0.32;;;6.30;99.90;;;;;;5045499;28;20116;-79
2022/10/20 07:23:47;;;;;;;0.77;0.77;;;6.40;99.90;;;;;;5045019;28;20129;-80
2022/10/20 07:26:18;;;;;;;0.70;0.68;;;6.40;99.90;;;;;;5046262;28;20504;-80
2022/10/20 07:28:46;;;;;;;0.98;0.73;;;6.50;99.90;;;;;;5045892;28;20067;-80
2022/10/20 07:31:18;;;;;;;1.50;1.40;;;6.60;99.90;;;;;;5045482;28;20376;-80
2022/10/20 07:33:44;;;;;;;9.88;1.98;;;6.70;99.90;;;;;;5045136;28;20049;-80
2022/10/20 07:36:11;;;;;;;0.70;0.70;;;6.70;99.90;;;;;;5044902;28;20495;-80
2022/10/20 07:38:37;;;;;;;1.23;1.13;;;6.70;99.90;;;;;;5044616;28;20049;-79
2022/10/20 07:41:03;;;;;;;1.13;0.90;;;6.80;99.90;;;;;;5043996;28;20041;-78
2022/10/20 07:43:29;;;;;;;0.63;0.63;;;6.80;97.90;;;;;;5044159;28;20482;-79
2022/10/20 07:45:55;;;;;;;1.48;1.27;;;6.80;98.40;;;;;;5043726;28;20049;-79
2022/10/20 07:48:20;;;;;;;0.85;0.40;;;6.90;14.60;;;;;;5043412;28;20402;-80
2022/10/20 07:50:46;;;;;;;4.38;1.38;;;6.90;22.50;;;;;;5043787;28;20044;-79
2022/10/20 07:53:12;;;;;;;3.42;1.20;;;7.00;1.80;;;;;;5042318;28;20037;-79
2022/10/20 07:55:37;;;;;;;0.63;0.50;;;7.00;1.00;;;;;;5043181;28;20194;-79
2022/10/20 07:58:03;;;;;;;1.65;0.73;;;7.00;1.00;;;;;;5042902;28;20048;-79
2022/10/20 08:00:29;;;;;;;2.30;1.88;;;7.10;1.00;;;;;;5039067;28;20056;-78
2022/10/20 08:02:54;;;;;;;0.47;0.47;;;7.20;1.00;;;;;;5039227;28;20049;-79
2022/10/20 08:05:20;;;;;;;2.78;1.55;;;7.20;1.00;;;;;;5041479;28;20041;-79
2022/10/20 08:07:45;;;;;;;0.50;0.50;;;7.30;1.00;;;;;;5043218;28;20047;-80
2022/10/20 08:10:11;;;;;;;1.40;1.20;;;7.40;99.90;;;;;;5026477;28;20064;-79
2022/10/20 08:12:37;;;;;;;0.95;0.77;;;7.50;99.90;;;;;;5043510;28;20041;-79
2022/10/20 08:15:03;;;;;;;0.93;0.73;;;7.60;99.90;;;;;;5043917;28;20594;-79
2022/10/20 08:17:29;;;;;;;0.35;0.32;;;7.70;99.90;;;;;;5044036;28;20060;-80
2022/10/20 08:19:54;;;;;;;2.25;1.08;;;7.70;99.90;;;;;;5044509;28;20499;-80
2022/10/20 08:22:20;;;;;;;2.00;1.85;;;7.80;97.00;;;;;;5045950;28;20096;-79
2022/10/20 08:24:46;;;;;;;4.57;0.77;;;7.90;92.80;;;;;;5045112;28;20048;-80
2022/10/20 08:27:12;;;;;;;1.55;1.27;;;8.10;92.80;;;;;;5044447;28;20049;-80
2022/10/20 08:29:38;;;;;;;0.28;0.28;;;8.10;99.90;;;;;;5045619;28;20045;-79
2022/10/20 08:32:04;;;;;;;1.77;1.42;;;8.20;1.00;;;;;;5044306;28;20049;-80
2022/10/20 08:34:30;;;;;;;1.35;1.25;;;8.20;99.90;;;;;;5046179;28;20106;-80
2022/10/20 08:36:55;;;;;;;0.20;0.20;;;8.30;99.90;;;;;;5043464;28;20547;-80
2022/10/20 08:39:21;;;;;;;0.70;0.70;;;8.40;1.00;;;;;;5044757;28;20044;-79
2022/10/20 08:41:49;;;;;;;0.82;0.82;;;8.40;1.00;;;;;;5044258;28;20152;-79
2022/10/20 08:44:22;;;;;;;0.45;0.45;;;8.50;1.00;;;;;;5024147;28;20084;-80
2022/10/20 08:46:48;;;;;;;2.45;1.40;;;8.60;99.90;;;;;;5042311;28;20051;-79
2022/10/20 08:49:27;;;;;;;0.28;0.28;;;8.60;99.90;;;;;;5043355;28;20044;-80
2022/10/20 08:51:53;;;;;;;1.00;0.85;;;8.80;99.90;;;;;;5043610;28;20048;-78
2022/10/20 08:54:19;;;;;;;0.10;0.10;;;8.90;99.90;;;;;;5042680;28;20106;-80
2022/10/20 08:56:45;;;;;;;1.80;0.82;;;8.90;10.80;;;;;;5044957;28;20108;-80
2022/10/20 08:59:27;;;;;;;0.47;0.47;;;9.00;97.90;;;;;;5043272;28;20438;-80
2022/10/20 09:01:54;;;;;;;0.63;0.55;;;9.00;1.00;;;;;;5044553;28;20049;-79
2022/10/20 09:04:22;;;;;;;0.45;0.38;;;9.00;1.00;;;;;;5046583;28;20055;-79
2022/10/20 09:06:53;;;;;;;0.95;0.85;;;9.10;1.00;;;;;;5043011;28;20045;-80
2022/10/20 09:09:20;;;;;;;2.83;1.23;;;9.20;1.00;;;;;;5042707;28;20128;-80
2022/10/20 09:11:47;;;;;;;1.70;1.20;;;9.30;99.90;;;;;;5043639;28;20037;-79
2022/10/20 09:14:15;;;;;;;0.22;0.22;;;9.30;99.90;;;;;;5043712;28;20128;-80
2022/10/20 09:16:42;;;;;;;0.17;0.17;;;9.30;99.90;;;;;;5025410;28;20110;-79
2022/10/20 09:19:16;;;;;;;0.35;0.35;;;9.40;99.90;;;;;;5042875;28;20048;-79
2022/10/20 09:21:45;;;;;;;2.00;1.83;;;9.50;99.90;;;;;;5044925;28;20048;-79
2022/10/20 09:24:11;;;;;;;0.80;0.73;;;9.50;99.90;;;;;;5042906;28;20045;-80
2022/10/20 09:26:44;;;;;;;1.05;0.68;;;9.60;99.90;;;;;;5043781;28;20045;-80
2022/10/20 09:29:11;;;;;;;0.70;0.65;;;9.70;99.90;;;;;;5041814;28;20499;-80
2022/10/20 09:31:39;;;;;;;0.15;0.10;;;9.70;99.90;;;;;;5044598;28;20148;-79
2022/10/20 09:34:22;;;;;;;0.77;0.65;;;9.70;99.90;;;;;;5027316;28;20056;-80
2022/10/20 09:36:49;;;;;;;1.70;0.93;;;9.80;99.90;;;;;;5047362;28;20133;-79
2022/10/20 09:39:20;;;;;;;6.32;0.70;;;9.80;99.90;;;;;;5047470;28;20044;-80
2022/10/20 09:41:47;;;;;;;0.95;0.40;;;10.10;99.90;;;;;;5046230;28;20399;-79
2022/10/20 09:44:23;;;;;;;2.90;0.70;;;10.20;99.90;;;;;;5047184;28;20124;-80
2022/10/20 09:46:51;;;;;;;1.05;0.95;;;10.30;1.00;;;;;;5047318;28;20080;-80
2022/10/20 09:49:43;;;;;;;1.13;0.77;;;10.40;34.50;;;;;;5047129;28;20052;-80
2022/10/20 09:52:46;;;;;;;0.88;0.47;;;10.50;1.00;;;;;;5046865;28;20064;-80
2022/10/20 09:55:33;;;;;;;0.40;0.38;;;10.50;5.50;;;;;;5045173;28;20048;-80
2022/10/20 09:58:02;;;;;;;1.85;1.15;;;10.50;1.00;;;;;;5048721;28;20049;-79
2022/10/20 10:00:43;;;;;;;0.95;0.80;;;10.70;1.00;;;;;;5047194;28;20057;-79
2022/10/20 10:03:21;;;;;;;1.52;1.23;;;10.80;1.00;;;;;;5047158;28;20636;-80
2022/10/20 10:05:58;;;;;;;0.52;0.43;;;10.90;1.00;;;;;;5048645;28;20132;-80
2022/10/20 10:08:44;;;;;;;1.75;1.20;;;11.00;1.00;;;;;;5050178;28;20055;-80
2022/10/20 10:11:18;;;;;;;1.58;1.15;;;11.20;1.00;;;;;;5048127;28;20042;-79
2022/10/20 10:13:47;;;;;;;1.55;0.40;;;11.30;99.90;;;;;;5046864;28;20508;-79
2022/10/20 10:16:23;;;;;;;0.10;0.10;;;11.40;1.00;;;;;;5048561;28;20040;-79
2022/10/20 10:19:00;;;;;;;2.05;1.00;;;11.40;99.90;;;;;;5050276;28;20048;-80
2022/10/20 10:21:26;;;;;;;1.40;1.25;;;11.20;1.00;;;;;;5049327;28;20124;-80
2022/10/20 10:23:58;;;;;;;0.65;0.47;;;11.30;1.00;;;;;;5051218;28;20056;-79
2022/10/20 10:26:32;;;;;;;0.17;0.17;;;11.50;99.90;;;;;;5060780;28;20048;-80
2022/10/20 10:28:58;;;;;;;1.40;1.23;;;11.60;99.90;;;;;;5070018;28;20465;-80
2022/10/20 10:31:25;;;;;;;0.50;0.32;;;11.30;99.90;;;;;;5062782;28;20041;-79
2022/10/20 10:34:12;;;;;;;0.65;0.60;;;11.50;99.90;;;;;;5048297;28;20076;-80
2022/10/20 10:36:38;;;;;;;0.43;0.43;;;11.50;99.90;;;;;;5049255;28;20044;-80
2022/10/20 10:39:10;;;;;;;1.15;0.50;;;11.60;1.00;;;;;;5050362;28;20048;-80
2022/10/20 10:41:55;;;;;;;1.48;1.17;;;11.60;99.90;;;;;;5045549;28;20067;-79
2022/10/20 10:44:33;;;;;;;0.57;0.22;;;12.00;99.90;;;;;;5046672;28;20061;-79
2022/10/20 10:47:29;;;;;;;1.65;0.88;;;12.20;99.90;;;;;;5046068;28;20072;-79
2022/10/20 10:50:25;;;;;;;0.57;0.40;;;12.10;99.90;;;;;;5047392;28;20557;-79
2022/10/20 10:53:38;;;;;;;0.68;0.43;;;12.30;99.90;;;;;;5047681;28;20048;-79
2022/10/20 10:56:42;;;;;;;1.75;0.85;;;12.40;99.90;;;;;;5042759;28;20053;-80
2022/10/20 10:59:28;;;;;;;0.38;0.38;;;12.50;99.90;;;;;;5048032;28;20106;-79
2022/10/20 11:02:00;;;;;;;0.63;0.47;;;12.60;99.90;;;;;;5047069;28;20427;-80
2022/10/20 11:04:37;;;;;;;1.27;0.60;;;12.90;99.90;;;;;;5050284;28;20047;-79
2022/10/20 11:07:21;;;;;;;0.17;0.17;;;13.10;99.90;;;;;;5049944;28;20041;-79
2022/10/20 11:09:58;;;;;;;3.28;0.88;;;13.30;99.90;;;;;;5047363;28;20107;-78
2022/10/20 11:12:58;;;;;;;0.20;0.17;;;13.30;99.90;;;;;;5046760;28;20056;-80
2022/10/20 11:15:44;;;;;;;0.20;0.20;;;13.00;99.90;;;;;;5047518;28;20048;-79
2022/10/20 11:18:18;;;;;;;0.63;0.38;;;13.00;99.90;;;;;;5047332;28;20621;-79
2022/10/20 11:20:44;;;;;;;0.98;0.60;;;12.90;99.90;;;;;;5047944;28;20048;-79
2022/10/20 11:23:31;;;;;;;1.35;0.85;;;13.10;99.90;;;;;;5048656;28;20769;-79
2022/10/20 11:26:22;;;;;;;0.03;0.00;;;13.30;99.90;;;;;;5048109;28;20055;-79
2022/10/20 11:28:51;;;;;;;0.35;0.35;;;13.70;99.90;;;;;;5044723;28;20049;-78
2022/10/20 11:31:36;;;;;;;0.80;0.80;;;13.80;99.90;;;;;;5045623;28;20051;-80
2022/10/20 11:34:13;;;;;;;0.65;0.55;;;13.90;99.90;;;;;;5044883;28;20058;-78
2022/10/20 11:36:55;;;;;;;0.25;0.25;;;13.20;99.90;;;;;;5046990;28;20052;-78
2022/10/20 11:39:41;;;;;;;0.47;0.35;;;13.80;99.90;;;;;;5050527;28;20049;-83
2022/10/20 11:42:23;;;;;;;0.52;0.38;;;13.90;99.90;;;;;;5051046;28;20068;-83
2022/10/20 11:44:52;;;;;;;0.55;0.55;;;14.00;99.90;;;;;;5052959;28;20457;-83
2022/10/20 11:47:43;;;;;;;5.38;0.70;;;14.20;96.00;;;;;;5048006;28;20458;-84
2022/10/20 11:50:10;;;;;;;1.10;0.80;;;13.80;99.90;;;;;;5047439;28;20068;-83
2022/10/20 11:52:59;;;;;;;0.73;0.50;;;13.60;99.90;;;;;;5029130;28;20040;-81
2022/10/20 11:55:33;;;;;;;0.13;0.13;;;13.60;99.90;;;;;;5046418;28;20049;-78
2022/10/20 11:58:02;;;;;;;0.55;0.55;;;13.70;99.90;;;;;;5047643;28;20048;-78
2022/10/20 12:00:45;;;;;;;12.70;0.30;;;13.80;99.90;;;;;;5045239;28;20057;-78
2022/10/20 12:03:56;;;;;;;0.50;0.47;;;13.50;99.90;;;;;;5048274;28;20497;-78
2022/10/20 12:06:43;;;;;;;0.22;0.22;;;13.60;99.90;;;;;;5048650;28;20383;-77
2022/10/20 12:09:25;;;;;;;7.85;1.33;;;13.60;99.90;;;;;;5048038;28;20048;-81
2022/10/20 12:11:59;;;;;;;0.30;0.30;;;13.40;99.90;;;;;;5049947;28;20447;-81
2022/10/20 12:14:35;;;;;;;3.08;1.08;;;13.60;99.90;;;;;;5048337;28;20041;-81
2022/10/20 12:17:21;;;;;;;0.55;0.52;;;13.60;99.90;;;;;;5045185;28;20052;-81
2022/10/20 12:19:50;;;;;;;0.10;0.10;;;13.60;99.90;;;;;;5028301;28;20073;-81
2022/10/20 12:22:16;;;;;;;0.22;0.22;;;13.50;99.90;;;;;;5024851;28;20099;-78
2022/10/20 12:24:52;;;;;;;0.50;0.40;;;13.50;99.90;;;;;;5024844;28;20054;-78
2022/10/20 12:27:19;;;;;;;2.30;1.42;;;13.50;99.90;;;;;;5023598;28;20068;-78
2022/10/20 12:29:49;;;;;;;0.32;0.32;;;13.50;1.00;;;;;;5009494;28;20045;-78
2022/10/20 12:32:23;;;;;;;1.55;0.80;;;13.60;1.00;;;;;;5025209;28;20053;-78
2022/10/20 12:35:00;;;;;;;0.60;0.60;;;13.50;1.00;;;;;;5026193;28;20408;-78
2022/10/20 12:37:33;;;;;;;1.48;1.10;;;13.70;99.90;;;;;;5024926;28;20144;-78
2022/10/20 12:40:23;;;;;;;2.55;0.98;;;13.60;1.00;;;;;;5024053;28;20440;-78
2022/10/20 12:42:52;;;;;;;0.65;0.65;;;13.70;1.00;;;;;;5024986;28;20064;-78
2022/10/20 12:45:18;;;;;;;0.32;0.32;;;13.50;1.00;;;;;;5023465;28;20526;-78
2022/10/20 12:48:01;;;;;;;0.68;0.60;;;13.40;1.00;;;;;;5025857;28;20049;-79
2022/10/20 12:50:35;;;;;;;0.25;0.17;;;13.00;99.90;;;;;;5024416;28;20044;-80
2022/10/20 12:53:18;;;;;;;0.95;0.32;;;12.70;99.90;;;;;;5025635;28;20459;-80
2022/10/20 12:55:51;;;;;;;0.40;0.40;;;12.60;99.90;;;;;;5025454;28;20084;-80
2022/10/20 12:58:17;;;;;;;0.50;0.50;;;12.40;1.00;;;;;;5025621;28;20045;-80
2022/10/20 13:00:45;;;;;;;1.38;0.40;;;12.50;1.00;;;;;;5027090;28;20068;-80
2022/10/20 13:03:30;;;;;;;0.75;0.63;;;12.30;99.90;;;;;;5024635;28;20160;-81
2022/10/20 13:05:59;;;;;;;0.82;0.50;;;12.20;1.00;;;;;;5026369;28;20137;-81
2022/10/20 13:08:31;;;;;;;2.85;1.55;;;12.10;1.00;;;;;;5030505;28;20053;-81
2022/10/20 13:11:36;;;;;;;0.20;0.20;;;12.00;97.20;;;;;;5029474;28;20064;-81
2022/10/20 13:14:10;;;;;;;0.63;0.63;;;11.90;99.90;;;;;;5028374;28;20408;-81